Time;durP1;ratioP1;P1;durP2;ratioP2;P2;SDS_P1;SDS_P2;PMS_P1;PMS_P2;Temp;Humidity;BMP_temperature;BMP_pressure;BME280_temperature;BME280_humidity;BME280_pressure;Samples;Min_cycle;Max_cycle;Signal;HPM_P1;HPM_P2
2020/12/22 00:01:16;;;;;;;0.50;0.40;;;9.70;99.90;;;;;;5023947;28;20040;-62
2020/12/22 00:03:41;;;;;;;0.50;0.30;;;9.80;99.90;;;;;;5014201;28;20022;-63
2020/12/22 00:06:08;;;;;;;0.70;0.47;;;9.70;99.90;;;;;;5023262;28;20025;-63
2020/12/22 00:08:33;;;;;;;1.35;0.45;;;9.70;99.90;;;;;;5019097;28;20064;-62
2020/12/22 00:10:59;;;;;;;0.40;0.40;;;9.80;99.90;;;;;;5023226;28;20072;-62
2020/12/22 00:13:25;;;;;;;0.82;0.52;;;9.80;99.90;;;;;;5018615;28;20029;-61
2020/12/22 00:15:50;;;;;;;1.13;0.45;;;9.90;99.90;;;;;;5025885;28;20025;-63
2020/12/22 00:18:16;;;;;;;0.60;0.52;;;9.90;99.90;;;;;;5021068;28;20028;-63
2020/12/22 00:20:43;;;;;;;0.40;0.30;;;9.90;99.90;;;;;;5021872;28;20026;-63
2020/12/22 00:23:09;;;;;;;2.50;0.40;;;10.00;99.90;;;;;;5017579;28;20075;-63
2020/12/22 00:25:45;;;;;;;0.30;0.20;;;10.00;99.90;;;;;;5028883;28;20426;-63
2020/12/22 00:28:15;;;;;;;0.43;0.40;;;10.00;99.90;;;;;;5026156;28;20052;-63
2020/12/22 00:30:41;;;;;;;0.50;0.30;;;10.00;99.90;;;;;;5024864;28;20032;-63
2020/12/22 00:33:07;;;;;;;1.75;0.40;;;10.10;99.90;;;;;;5021825;28;20058;-64
2020/12/22 00:35:33;;;;;;;0.22;0.22;;;10.10;99.90;;;;;;5026686;28;20101;-62
2020/12/22 00:37:59;;;;;;;0.70;0.40;;;10.10;99.90;;;;;;5027231;28;20117;-61
2020/12/22 00:40:26;;;;;;;0.28;0.28;;;10.10;99.90;;;;;;5027136;28;20034;-63
2020/12/22 00:42:52;;;;;;;0.95;0.22;;;10.20;99.90;;;;;;5034648;28;20032;-63
2020/12/22 00:45:18;;;;;;;0.43;0.30;;;10.20;99.90;;;;;;5029888;28;20029;-63
2020/12/22 00:47:44;;;;;;;1.30;0.28;;;10.20;99.90;;;;;;5022922;28;20097;-63
2020/12/22 00:50:10;;;;;;;0.30;0.28;;;10.30;99.90;;;;;;5031564;28;20111;-62
2020/12/22 00:52:35;;;;;;;0.50;0.25;;;10.30;99.90;;;;;;5030052;28;20113;-63
2020/12/22 00:55:01;;;;;;;0.55;0.55;;;10.40;99.90;;;;;;5036599;28;20590;-62
2020/12/22 00:57:26;;;;;;;3.45;0.38;;;10.40;99.90;;;;;;5038112;28;20479;-62
2020/12/22 00:59:52;;;;;;;0.82;0.15;;;10.40;99.90;;;;;;5028538;28;20128;-62
2020/12/22 01:02:17;;;;;;;0.30;0.30;;;10.50;99.90;;;;;;5025732;28;20029;-63
2020/12/22 01:04:43;;;;;;;0.50;0.30;;;10.50;99.90;;;;;;5035914;28;20034;-63
2020/12/22 01:07:08;;;;;;;3.03;0.30;;;10.50;99.90;;;;;;5036968;28;20033;-62
2020/12/22 01:09:34;;;;;;;3.05;0.47;;;10.50;99.90;;;;;;5040317;28;20119;-63
2020/12/22 01:11:59;;;;;;;1.77;0.32;;;10.50;99.90;;;;;;5036426;28;20448;-62
2020/12/22 01:14:25;;;;;;;0.20;0.20;;;10.60;99.90;;;;;;5034410;28;20495;-63
2020/12/22 01:16:53;;;;;;;1.17;0.30;;;10.60;99.90;;;;;;4954081;28;20029;-60
2020/12/22 01:19:19;;;;;;;0.55;0.32;;;10.60;99.90;;;;;;5041413;28;20045;-61
2020/12/22 01:21:44;;;;;;;0.50;0.50;;;10.60;99.90;;;;;;5033312;28;20064;-61
2020/12/22 01:24:10;;;;;;;0.30;0.30;;;10.70;99.90;;;;;;5038571;28;20021;-61
2020/12/22 01:26:36;;;;;;;0.80;0.30;;;10.70;99.90;;;;;;5034047;28;20511;-62
2020/12/22 01:29:01;;;;;;;0.85;0.40;;;10.70;99.90;;;;;;5044478;28;20546;-61
2020/12/22 01:31:29;;;;;;;0.30;0.30;;;10.70;99.90;;;;;;5033864;28;20034;-61
2020/12/22 01:33:57;;;;;;;0.40;0.40;;;10.70;99.90;;;;;;5037642;28;20055;-62
2020/12/22 01:36:25;;;;;;;0.57;0.40;;;10.70;99.90;;;;;;5029641;28;20130;-61
2020/12/22 01:38:51;;;;;;;2.50;0.40;;;10.70;99.90;;;;;;5031579;28;20036;-62
2020/12/22 01:41:17;;;;;;;1.48;0.30;;;10.70;99.90;;;;;;5024616;28;20166;-61
2020/12/22 01:43:59;;;;;;;6.00;0.40;;;10.80;99.90;;;;;;5031301;28;20036;-62
2020/12/22 01:46:31;;;;;;;0.63;0.30;;;10.80;99.90;;;;;;5024248;28;20121;-61
2020/12/22 01:48:58;;;;;;;1.52;0.73;;;10.80;99.90;;;;;;5034500;28;20022;-59
2020/12/22 01:51:25;;;;;;;0.88;0.20;;;10.80;99.90;;;;;;5015921;28;20029;-62
2020/12/22 01:53:50;;;;;;;0.20;0.20;;;10.80;99.90;;;;;;5019075;28;20036;-62
2020/12/22 01:56:16;;;;;;;1.20;0.38;;;10.80;99.90;;;;;;5013893;28;20396;-62
2020/12/22 01:58:42;;;;;;;0.40;0.40;;;10.70;99.90;;;;;;5022581;28;20518;-62
2020/12/22 02:01:07;;;;;;;1.45;0.35;;;10.70;99.90;;;;;;5018194;28;20593;-60
2020/12/22 02:03:33;;;;;;;3.15;0.60;;;10.70;99.90;;;;;;5021674;28;20038;-62
2020/12/22 02:05:59;;;;;;;0.63;0.30;;;10.60;99.90;;;;;;5026993;28;20080;-61
2020/12/22 02:08:24;;;;;;;1.10;0.20;;;10.60;99.90;;;;;;5014931;28;20029;-62
2020/12/22 02:10:51;;;;;;;0.20;0.20;;;10.70;99.90;;;;;;5010985;28;20032;-61
2020/12/22 02:13:16;;;;;;;0.20;0.20;;;10.60;99.90;;;;;;5016449;28;20022;-61
2020/12/22 02:15:42;;;;;;;1.38;0.40;;;10.60;99.90;;;;;;5003739;28;20107;-61
2020/12/22 02:18:08;;;;;;;0.50;0.50;;;10.70;99.90;;;;;;5014327;28;20057;-60
2020/12/22 02:20:33;;;;;;;0.28;0.28;;;10.70;99.90;;;;;;5030466;28;20535;-62
2020/12/22 02:22:59;;;;;;;0.25;0.25;;;10.80;99.90;;;;;;5031030;28;20061;-62
2020/12/22 02:25:24;;;;;;;0.30;0.30;;;10.80;99.90;;;;;;5019665;28;20021;-62
2020/12/22 02:27:50;;;;;;;0.63;0.30;;;10.80;99.90;;;;;;5030889;28;20025;-62
2020/12/22 02:30:17;;;;;;;0.85;0.30;;;10.90;99.90;;;;;;5023609;28;20029;-62
2020/12/22 02:32:42;;;;;;;0.43;0.43;;;10.90;99.90;;;;;;5017421;28;20038;-61
2020/12/22 02:35:08;;;;;;;0.95;0.40;;;10.90;99.90;;;;;;5028978;28;20021;-62
2020/12/22 02:37:33;;;;;;;0.40;0.40;;;11.00;99.90;;;;;;5037582;28;20474;-62
2020/12/22 02:39:59;;;;;;;0.63;0.50;;;11.00;99.90;;;;;;5026594;28;20032;-61
2020/12/22 02:42:24;;;;;;;0.40;0.40;;;11.00;99.90;;;;;;5029200;28;20040;-62
2020/12/22 02:44:50;;;;;;;1.02;0.55;;;11.00;99.90;;;;;;5016784;28;20036;-61
2020/12/22 02:47:16;;;;;;;0.40;0.40;;;11.00;99.90;;;;;;5036101;28;20478;-61
2020/12/22 02:49:42;;;;;;;2.10;0.40;;;11.00;99.90;;;;;;5023574;28;20035;-60
2020/12/22 02:52:09;;;;;;;0.40;0.40;;;11.10;99.90;;;;;;5031934;28;20032;-60
2020/12/22 02:54:35;;;;;;;0.30;0.30;;;11.10;99.90;;;;;;5032292;28;20041;-61
2020/12/22 02:57:00;;;;;;;0.32;0.32;;;11.10;99.90;;;;;;5026831;28;20028;-61
2020/12/22 02:59:26;;;;;;;0.40;0.35;;;11.10;99.90;;;;;;5033721;28;20646;-62
2020/12/22 03:01:51;;;;;;;1.92;0.50;;;11.20;99.90;;;;;;5027915;28;20034;-61
2020/12/22 03:04:18;;;;;;;0.68;0.50;;;11.20;99.90;;;;;;5030851;28;20086;-62
2020/12/22 03:06:43;;;;;;;0.20;0.20;;;11.20;99.90;;;;;;5028113;28;20048;-63
2020/12/22 03:09:09;;;;;;;0.63;0.50;;;11.30;99.90;;;;;;5035230;28;20103;-61
2020/12/22 03:11:35;;;;;;;0.30;0.30;;;11.30;99.90;;;;;;5026201;28;20033;-61
2020/12/22 03:14:01;;;;;;;0.50;0.50;;;11.30;99.90;;;;;;5018647;28;20029;-61
2020/12/22 03:16:26;;;;;;;0.50;0.50;;;11.30;99.90;;;;;;5010632;28;20049;-62
2020/12/22 03:18:52;;;;;;;0.52;0.43;;;11.30;99.90;;;;;;5023309;28;20403;-62
2020/12/22 03:21:17;;;;;;;2.70;0.30;;;11.30;99.90;;;;;;5025797;28;20112;-62
2020/12/22 03:23:44;;;;;;;0.88;0.35;;;11.30;99.90;;;;;;5032673;28;20064;-60
2020/12/22 03:26:09;;;;;;;0.30;0.30;;;11.40;99.90;;;;;;5023581;28;20025;-62
2020/12/22 03:28:35;;;;;;;4.50;0.20;;;11.30;99.90;;;;;;5038798;28;20036;-61
2020/12/22 03:31:01;;;;;;;2.00;0.30;;;11.30;99.90;;;;;;5019944;28;20041;-62
2020/12/22 03:33:26;;;;;;;0.30;0.30;;;11.30;99.90;;;;;;5025616;28;20400;-61
2020/12/22 03:35:52;;;;;;;0.85;0.43;;;11.30;99.90;;;;;;5034322;28;20108;-61
2020/12/22 03:38:17;;;;;;;0.50;0.35;;;11.30;99.90;;;;;;5028423;28;20661;-61
2020/12/22 03:40:43;;;;;;;0.75;0.50;;;11.30;99.90;;;;;;5025721;28;20022;-60
2020/12/22 03:43:09;;;;;;;0.45;0.40;;;11.30;99.90;;;;;;5033776;28;20372;-61
2020/12/22 03:45:37;;;;;;;0.65;0.30;;;11.30;99.90;;;;;;5027257;28;20040;-60
2020/12/22 03:48:03;;;;;;;0.43;0.30;;;11.30;99.90;;;;;;5028837;28;20133;-60
2020/12/22 03:50:28;;;;;;;0.65;0.40;;;11.40;99.90;;;;;;5029434;28;20873;-62
2020/12/22 03:52:57;;;;;;;0.30;0.30;;;11.40;99.90;;;;;;5012405;28;568956;-60
2020/12/22 03:55:23;;;;;;;1.42;0.50;;;11.40;99.90;;;;;;5038914;28;20017;-62
2020/12/22 03:57:48;;;;;;;0.57;0.20;;;11.30;99.90;;;;;;5037327;28;20550;-62
2020/12/22 04:00:14;;;;;;;1.85;0.40;;;11.40;99.90;;;;;;5030946;28;20079;-62
2020/12/22 04:02:40;;;;;;;0.30;0.30;;;11.40;99.90;;;;;;5025583;28;20060;-61
2020/12/22 04:05:06;;;;;;;0.68;0.32;;;11.40;99.90;;;;;;5035597;28;20147;-62
2020/12/22 04:07:31;;;;;;;0.63;0.60;;;11.40;99.90;;;;;;5036521;28;20048;-61
2020/12/22 04:09:57;;;;;;;0.75;0.55;;;11.50;99.90;;;;;;5019998;28;20030;-63
2020/12/22 04:12:23;;;;;;;1.30;0.52;;;11.50;99.90;;;;;;5032622;28;20395;-62
2020/12/22 04:14:48;;;;;;;0.40;0.40;;;11.50;99.90;;;;;;5038314;28;20517;-62
2020/12/22 04:17:14;;;;;;;2.17;0.38;;;11.50;99.90;;;;;;5010421;28;20640;-63
2020/12/22 04:19:39;;;;;;;1.65;0.30;;;11.50;99.90;;;;;;5037816;28;20021;-62
2020/12/22 04:22:05;;;;;;;0.40;0.40;;;11.60;99.90;;;;;;5027774;28;20018;-62
2020/12/22 04:24:30;;;;;;;2.28;0.40;;;11.60;99.90;;;;;;5032440;28;20454;-63
2020/12/22 04:26:56;;;;;;;0.52;0.52;;;11.70;99.90;;;;;;5039335;28;20560;-61
2020/12/22 04:29:21;;;;;;;3.13;0.55;;;11.70;99.90;;;;;;5028978;28;20033;-62
2020/12/22 04:31:47;;;;;;;0.32;0.32;;;11.70;99.90;;;;;;5023774;28;20057;-61
2020/12/22 04:34:12;;;;;;;1.00;0.38;;;11.80;99.90;;;;;;5035607;28;20052;-61
2020/12/22 04:36:38;;;;;;;0.57;0.35;;;11.90;99.90;;;;;;5029135;28;20044;-63
2020/12/22 04:39:04;;;;;;;1.02;0.55;;;11.90;99.90;;;;;;5040557;28;20025;-61
2020/12/22 04:41:31;;;;;;;0.40;0.40;;;12.00;99.90;;;;;;5023265;28;20040;-61
2020/12/22 04:43:58;;;;;;;0.65;0.40;;;11.90;99.90;;;;;;5012594;28;20057;-60
2020/12/22 04:46:23;;;;;;;0.40;0.40;;;11.90;99.90;;;;;;5021912;28;20044;-61
2020/12/22 04:48:55;;;;;;;0.95;0.40;;;11.90;99.90;;;;;;5030069;28;20025;-62
2020/12/22 04:51:22;;;;;;;0.30;0.30;;;11.90;99.90;;;;;;5038952;28;20447;-63
2020/12/22 04:53:48;;;;;;;2.05;0.60;;;11.90;99.90;;;;;;5033430;28;20481;-63
2020/12/22 04:56:14;;;;;;;1.17;0.55;;;12.00;99.90;;;;;;5033958;28;20052;-63
2020/12/22 04:58:40;;;;;;;0.70;0.50;;;12.00;99.90;;;;;;5033706;28;20053;-63
2020/12/22 05:01:06;;;;;;;1.17;0.77;;;12.10;99.90;;;;;;5015046;28;20052;-63
2020/12/22 05:03:31;;;;;;;1.17;0.73;;;12.10;99.90;;;;;;5025636;28;20038;-63
2020/12/22 05:05:57;;;;;;;2.25;1.13;;;12.10;99.90;;;;;;5034620;28;20053;-62
2020/12/22 05:08:22;;;;;;;2.05;0.40;;;12.10;99.90;;;;;;5033393;28;20441;-63
2020/12/22 05:10:49;;;;;;;0.70;0.55;;;12.10;99.90;;;;;;5022828;28;20729;-62
2020/12/22 05:13:16;;;;;;;0.93;0.60;;;12.10;99.90;;;;;;5025559;28;20486;-63
2020/12/22 05:15:43;;;;;;;0.70;0.70;;;12.10;99.90;;;;;;5018077;28;20608;-63
2020/12/22 05:18:10;;;;;;;0.45;0.45;;;12.10;99.90;;;;;;5018805;28;20174;-64
2020/12/22 05:20:44;;;;;;;1.02;0.55;;;12.10;99.90;;;;;;5036117;28;20017;-62
2020/12/22 05:23:17;;;;;;;1.70;0.68;;;12.10;99.90;;;;;;5023713;28;20025;-63
2020/12/22 05:25:45;;;;;;;0.75;0.50;;;12.10;99.90;;;;;;5037286;28;20024;-63
2020/12/22 05:28:14;;;;;;;1.05;0.50;;;12.10;99.90;;;;;;5034819;28;20013;-63
2020/12/22 05:30:40;;;;;;;0.75;0.50;;;12.10;99.90;;;;;;5029859;28;20030;-61
2020/12/22 05:33:06;;;;;;;0.40;0.40;;;12.10;99.90;;;;;;5033860;28;20025;-62
2020/12/22 05:35:58;;;;;;;0.50;0.50;;;12.10;99.90;;;;;;5037388;28;20021;-62
2020/12/22 05:38:26;;;;;;;0.50;0.40;;;12.10;99.90;;;;;;5038162;28;20047;-63
2020/12/22 05:40:51;;;;;;;0.38;0.38;;;12.10;99.90;;;;;;5034758;28;20029;-63
2020/12/22 05:43:18;;;;;;;0.40;0.35;;;12.20;99.90;;;;;;5034691;28;20174;-62
2020/12/22 05:45:45;;;;;;;0.40;0.40;;;12.10;99.90;;;;;;5032679;28;20022;-62
2020/12/22 05:48:14;;;;;;;0.50;0.50;;;12.10;99.90;;;;;;5033231;28;20535;-60
2020/12/22 05:50:47;;;;;;;1.45;0.80;;;12.20;99.90;;;;;;5037201;28;20029;-61
2020/12/22 05:53:14;;;;;;;3.88;0.68;;;12.10;99.90;;;;;;5034673;28;20390;-61
2020/12/22 05:55:40;;;;;;;1.23;0.60;;;12.20;99.90;;;;;;5038113;28;20116;-61
2020/12/22 05:58:12;;;;;;;2.45;0.57;;;12.20;99.90;;;;;;5035097;28;20538;-62
2020/12/22 06:00:42;;;;;;;0.80;0.60;;;12.20;99.90;;;;;;5036795;28;20513;-62
2020/12/22 06:03:17;;;;;;;0.50;0.50;;;12.30;99.90;;;;;;5030454;28;20029;-63
2020/12/22 06:05:44;;;;;;;2.05;0.60;;;12.30;99.90;;;;;;5036835;28;20022;-62
2020/12/22 06:08:12;;;;;;;1.70;0.70;;;12.30;99.90;;;;;;5021704;28;20510;-61
2020/12/22 06:10:39;;;;;;;0.55;0.50;;;12.30;99.90;;;;;;5031670;28;20079;-62
2020/12/22 06:13:06;;;;;;;0.40;0.40;;;12.30;99.90;;;;;;5032354;28;20032;-61
2020/12/22 06:15:33;;;;;;;0.52;0.45;;;12.40;99.90;;;;;;5032394;28;20133;-63
2020/12/22 06:17:59;;;;;;;1.08;0.40;;;12.30;99.90;;;;;;5041678;28;20034;-61
2020/12/22 06:20:27;;;;;;;0.40;0.40;;;12.30;99.90;;;;;;5028657;28;20040;-63
2020/12/22 06:23:05;;;;;;;1.08;0.47;;;12.30;99.90;;;;;;5030174;28;20099;-62
2020/12/22 06:25:32;;;;;;;0.88;0.70;;;12.30;99.90;;;;;;5036454;28;20071;-63
2020/12/22 06:27:58;;;;;;;1.35;1.20;;;12.30;99.90;;;;;;5036342;28;20022;-62
2020/12/22 06:30:35;;;;;;;0.95;0.60;;;12.30;99.90;;;;;;5036286;28;20059;-64
2020/12/22 06:33:18;;;;;;;0.40;0.40;;;12.30;99.90;;;;;;5025060;28;20498;-62
2020/12/22 06:36:05;;;;;;;11.02;6.05;;;12.30;99.90;;;;;;5023191;28;20718;-62
2020/12/22 06:38:50;;;;;;;36.45;18.05;;;12.30;99.90;;;;;;5025018;28;20531;-63
2020/12/22 06:41:39;;;;;;;126.68;61.97;;;12.30;99.90;;;;;;5027574;28;20056;-61
2020/12/22 06:44:21;;;;;;;95.50;45.05;;;12.40;99.90;;;;;;5038696;28;20100;-63
2020/12/22 06:46:51;;;;;;;18.90;9.90;;;12.40;99.90;;;;;;5032711;28;20495;-63
2020/12/22 06:49:17;;;;;;;5.43;2.90;;;12.40;99.90;;;;;;5034940;28;20039;-63
2020/12/22 06:51:43;;;;;;;25.95;15.00;;;12.40;99.90;;;;;;5034171;28;20033;-63
2020/12/22 06:54:14;;;;;;;31.90;18.38;;;12.40;99.90;;;;;;5031721;28;20082;-63
2020/12/22 06:56:41;;;;;;;9.30;6.82;;;12.50;99.90;;;;;;5032497;28;20691;-62
2020/12/22 06:59:12;;;;;;;12.77;9.48;;;12.50;99.90;;;;;;5027766;28;20067;-62
2020/12/22 07:01:44;;;;;;;14.48;9.95;;;12.40;99.90;;;;;;5030538;28;20033;-63
2020/12/22 07:04:23;;;;;;;5.35;3.45;;;12.50;99.90;;;;;;5023315;28;20505;-63
2020/12/22 07:06:56;;;;;;;4.85;3.92;;;12.50;99.90;;;;;;5031381;28;20028;-63
2020/12/22 07:09:29;;;;;;;18.25;13.20;;;12.60;99.90;;;;;;5038505;28;20043;-63
2020/12/22 07:12:07;;;;;;;11.65;9.25;;;12.60;99.90;;;;;;5033660;28;20029;-62
2020/12/22 07:14:33;;;;;;;4.18;3.78;;;12.60;99.90;;;;;;5034213;28;20505;-62
2020/12/22 07:17:00;;;;;;;1.42;0.70;;;12.60;99.90;;;;;;5007106;28;20045;-61
2020/12/22 07:19:31;;;;;;;1.65;0.50;;;12.70;99.90;;;;;;5033757;28;20029;-62
2020/12/22 07:22:05;;;;;;;0.40;0.40;;;12.80;99.90;;;;;;5031787;28;20039;-63
2020/12/22 07:24:32;;;;;;;;;;;12.90;99.90;;;;;;5026639;28;20203;-61
2020/12/22 07:26:57;;;;;;;0.63;0.50;;;12.90;99.90;;;;;;5040534;28;19916;-63
2020/12/22 07:29:24;;;;;;;1.40;0.95;;;12.90;99.90;;;;;;5034224;28;20021;-61
2020/12/22 07:31:50;;;;;;;1.20;0.80;;;13.00;99.90;;;;;;5036031;28;20033;-62
2020/12/22 07:34:16;;;;;;;0.68;0.60;;;12.90;99.90;;;;;;5036729;28;20109;-62
2020/12/22 07:36:42;;;;;;;1.55;0.80;;;13.00;99.90;;;;;;5035241;28;20458;-63
2020/12/22 07:39:23;;;;;;;2.08;0.80;;;12.90;99.90;;;;;;5039956;28;20479;-61
2020/12/22 07:41:50;;;;;;;0.95;0.55;;;12.90;99.90;;;;;;5030772;28;20037;-63
2020/12/22 07:44:21;;;;;;;1.98;0.93;;;13.00;99.90;;;;;;5031549;28;20063;-63
2020/12/22 07:46:48;;;;;;;0.60;0.50;;;13.10;99.90;;;;;;5032766;28;20021;-62
2020/12/22 07:49:15;;;;;;;3.28;0.60;;;13.10;99.90;;;;;;5024183;28;20034;-63
2020/12/22 07:51:43;;;;;;;1.02;0.65;;;13.10;99.90;;;;;;5032394;28;20057;-63
2020/12/22 07:54:09;;;;;;;1.52;0.70;;;13.10;99.90;;;;;;5033463;28;20082;-63
2020/12/22 07:56:37;;;;;;;3.25;1.00;;;13.20;99.90;;;;;;5036632;28;20013;-64
2020/12/22 07:59:05;;;;;;;3.13;1.20;;;13.20;99.90;;;;;;5035284;28;20053;-63
2020/12/22 08:01:32;;;;;;;1.25;1.05;;;13.30;99.90;;;;;;5031074;28;20033;-62
2020/12/22 08:03:58;;;;;;;1.50;1.00;;;13.30;99.90;;;;;;5034455;28;20132;-62
2020/12/22 08:06:23;;;;;;;1.52;0.85;;;13.30;99.90;;;;;;5024310;28;20120;-62
2020/12/22 08:08:59;;;;;;;2.97;0.80;;;13.30;99.90;;;;;;5034275;28;20052;-62
2020/12/22 08:11:26;;;;;;;1.95;1.00;;;13.20;99.90;;;;;;5028619;28;20111;-64
2020/12/22 08:13:52;;;;;;;2.25;0.80;;;13.20;99.90;;;;;;5037694;28;20126;-62
2020/12/22 08:16:19;;;;;;;3.70;0.98;;;13.20;99.90;;;;;;5035752;28;20021;-62
2020/12/22 08:18:46;;;;;;;0.90;0.70;;;13.30;99.90;;;;;;5019785;28;20041;-63
2020/12/22 08:21:13;;;;;;;3.55;1.13;;;13.30;99.90;;;;;;5036684;28;20086;-63
2020/12/22 08:23:39;;;;;;;1.95;0.90;;;13.30;99.90;;;;;;5030402;28;20123;-63
2020/12/22 08:26:05;;;;;;;4.05;0.82;;;13.20;99.90;;;;;;5034921;28;20112;-63
2020/12/22 08:28:31;;;;;;;3.78;0.95;;;13.20;99.90;;;;;;5030728;28;20175;-62
2020/12/22 08:31:14;;;;;;;4.35;0.90;;;13.20;99.90;;;;;;5028881;28;20105;-63
2020/12/22 08:33:41;;;;;;;1.92;0.85;;;13.20;99.90;;;;;;5022851;28;20018;-61
2020/12/22 08:36:11;;;;;;;0.70;0.70;;;13.30;99.90;;;;;;5018660;28;20395;-60
2020/12/22 08:38:37;;;;;;;1.90;0.80;;;13.30;99.90;;;;;;5033456;28;20075;-63
2020/12/22 08:41:17;;;;;;;3.45;1.13;;;13.40;99.90;;;;;;5021819;28;20026;-63
2020/12/22 08:43:53;;;;;;;1.23;0.80;;;13.50;99.90;;;;;;5032841;28;20056;-63
2020/12/22 08:46:20;;;;;;;1.52;0.70;;;13.50;99.90;;;;;;5021838;28;20041;-62
2020/12/22 08:48:46;;;;;;;2.28;1.05;;;13.50;99.90;;;;;;5031436;28;20021;-62
2020/12/22 08:51:23;;;;;;;3.38;1.48;;;13.40;99.90;;;;;;5037632;28;20082;-61
2020/12/22 08:53:51;;;;;;;2.03;1.00;;;13.30;99.90;;;;;;5035243;28;20410;-62
2020/12/22 08:56:16;;;;;;;1.50;1.20;;;13.30;99.90;;;;;;5035100;28;20537;-62
2020/12/22 08:59:01;;;;;;;7.80;4.20;;;13.30;99.90;;;;;;5037251;28;20018;-63
2020/12/22 09:01:39;;;;;;;4.85;2.05;;;13.30;99.90;;;;;;5034693;28;20095;-62
2020/12/22 09:04:04;;;;;;;7.28;3.75;;;13.30;99.90;;;;;;5039915;28;20642;-62
2020/12/22 09:06:40;;;;;;;5.97;4.25;;;13.30;99.90;;;;;;5031603;28;20041;-63
2020/12/22 09:09:09;;;;;;;3.67;2.10;;;13.30;99.90;;;;;;5028299;28;20032;-63
2020/12/22 09:11:36;;;;;;;2.70;1.42;;;13.40;99.90;;;;;;5029800;28;20495;-61
2020/12/22 09:14:12;;;;;;;3.70;2.30;;;13.40;99.90;;;;;;5039885;28;20390;-61
2020/12/22 09:16:44;;;;;;;5.65;1.63;;;13.40;99.90;;;;;;5021964;28;20713;-62
2020/12/22 09:19:10;;;;;;;1.88;1.27;;;13.50;99.90;;;;;;5030879;28;20052;-61
2020/12/22 09:21:35;;;;;;;3.72;2.15;;;13.50;99.90;;;;;;5035903;28;20049;-63
2020/12/22 09:24:01;;;;;;;3.42;1.90;;;13.50;99.90;;;;;;5033016;28;20029;-62
2020/12/22 09:26:27;;;;;;;2.90;1.50;;;13.50;99.90;;;;;;5040029;28;21070;-63
2020/12/22 09:28:52;;;;;;;6.07;2.55;;;13.60;99.90;;;;;;5034536;28;20033;-63
2020/12/22 09:31:25;;;;;;;5.80;2.75;;;13.60;99.90;;;;;;5028796;28;20087;-63
2020/12/22 09:33:50;;;;;;;6.97;3.83;;;13.70;99.90;;;;;;5041336;28;20029;-61
2020/12/22 09:36:16;;;;;;;2.47;1.30;;;13.90;99.90;;;;;;5033054;28;20093;-63
2020/12/22 09:38:42;;;;;;;14.80;8.25;;;13.90;99.90;;;;;;5043763;28;20013;-62
2020/12/22 09:41:08;;;;;;;6.80;5.05;;;13.90;99.90;;;;;;5035291;28;20021;-61
2020/12/22 09:43:33;;;;;;;5.00;3.50;;;14.00;99.90;;;;;;5036488;28;20056;-63
2020/12/22 09:45:59;;;;;;;4.95;3.55;;;13.90;99.90;;;;;;5040792;28;20053;-64
2020/12/22 09:48:24;;;;;;;7.53;4.68;;;13.80;99.90;;;;;;5032468;28;20025;-64
2020/12/22 09:50:50;;;;;;;16.75;10.57;;;13.80;99.90;;;;;;5028919;28;20061;-62
2020/12/22 09:53:15;;;;;;;20.42;11.20;;;13.80;99.90;;;;;;5034247;28;20530;-62
2020/12/22 09:55:41;;;;;;;8.88;5.85;;;13.90;99.90;;;;;;5036136;28;20108;-63
2020/12/22 09:58:06;;;;;;;11.07;6.60;;;13.90;99.90;;;;;;5039127;28;20006;-63
2020/12/22 10:00:32;;;;;;;5.85;3.42;;;13.90;99.90;;;;;;5036494;28;20033;-62
2020/12/22 10:02:57;;;;;;;4.13;2.45;;;14.00;99.90;;;;;;5038663;28;20026;-63
2020/12/22 10:05:23;;;;;;;18.45;9.52;;;14.10;99.90;;;;;;5027345;28;20030;-63
2020/12/22 10:07:48;;;;;;;6.60;4.25;;;14.10;99.90;;;;;;5035036;28;20029;-63
2020/12/22 10:10:14;;;;;;;12.85;9.60;;;14.20;99.90;;;;;;5035461;28;20682;-64
2020/12/22 10:12:40;;;;;;;4.30;2.20;;;14.20;99.90;;;;;;5039439;28;20486;-63
2020/12/22 10:15:05;;;;;;;3.78;2.10;;;14.20;99.90;;;;;;5020996;28;20029;-63
2020/12/22 10:17:31;;;;;;;2.00;1.00;;;14.20;99.90;;;;;;5023130;28;20037;-61
2020/12/22 10:19:57;;;;;;;6.18;2.55;;;14.20;99.90;;;;;;5037234;28;20025;-64
2020/12/22 10:22:22;;;;;;;3.67;1.60;;;14.10;99.90;;;;;;5031256;28;20044;-62
2020/12/22 10:24:48;;;;;;;2.00;1.00;;;14.10;99.90;;;;;;5031011;28;20120;-63
2020/12/22 10:27:13;;;;;;;3.80;0.95;;;14.10;99.90;;;;;;5038348;28;20646;-62
2020/12/22 10:29:39;;;;;;;2.70;1.40;;;14.10;99.90;;;;;;5027426;28;20037;-63
2020/12/22 10:32:04;;;;;;;1.90;0.90;;;14.10;99.90;;;;;;5003668;28;20043;-62
2020/12/22 10:34:30;;;;;;;2.05;1.38;;;14.10;99.90;;;;;;5043818;28;20029;-63
2020/12/22 10:36:56;;;;;;;3.85;1.55;;;14.10;99.90;;;;;;5035646;28;20057;-62
2020/12/22 10:39:22;;;;;;;1.55;1.23;;;14.10;99.90;;;;;;5035090;28;20037;-63
2020/12/22 10:41:48;;;;;;;2.92;1.35;;;14.10;99.90;;;;;;5033120;28;20052;-62
2020/12/22 10:44:13;;;;;;;2.95;1.30;;;14.10;99.90;;;;;;5042233;28;20124;-63
2020/12/22 10:46:39;;;;;;;4.78;1.92;;;14.10;99.90;;;;;;5032731;28;20029;-61
2020/12/22 10:49:04;;;;;;;2.40;1.10;;;14.20;99.90;;;;;;5027564;28;20450;-63
2020/12/22 10:51:31;;;;;;;8.35;1.30;;;14.10;99.90;;;;;;5025657;28;20065;-63
2020/12/22 10:53:57;;;;;;;2.72;1.05;;;14.10;99.90;;;;;;5025240;28;20036;-62
2020/12/22 10:56:23;;;;;;;2.13;1.00;;;14.10;99.90;;;;;;5033265;28;20029;-63
2020/12/22 10:58:48;;;;;;;4.18;1.17;;;14.20;99.90;;;;;;5028656;28;20034;-62
2020/12/22 11:01:17;;;;;;;5.15;1.20;;;14.20;99.90;;;;;;5039532;28;20491;-63
2020/12/22 11:03:43;;;;;;;2.20;1.50;;;14.10;99.90;;;;;;5012720;28;20028;-64
2020/12/22 11:08:48;;;;;;;7.20;2.00;;;14.10;99.90;;;;;;5018667;28;20071;-62
2020/12/22 11:11:14;;;;;;;3.08;1.58;;;14.10;99.90;;;;;;5011763;28;20117;-63
2020/12/22 11:13:40;;;;;;;6.60;3.45;;;14.00;99.90;;;;;;5017617;28;20084;-61
2020/12/22 11:16:12;;;;;;;4.65;2.67;;;14.00;99.90;;;;;;5004997;28;20029;-62
2020/12/22 11:18:41;;;;;;;7.47;4.97;;;14.10;99.90;;;;;;4993870;28;20037;-60
2020/12/22 11:21:13;;;;;;;5.90;2.30;;;14.10;99.90;;;;;;5010664;28;20655;-62
2020/12/22 11:23:38;;;;;;;5.43;2.13;;;14.10;99.90;;;;;;5012375;28;20018;-62
2020/12/22 11:26:04;;;;;;;12.57;5.60;;;14.10;99.90;;;;;;5033600;28;20032;-63
2020/12/22 11:28:30;;;;;;;4.32;2.65;;;14.20;99.90;;;;;;5014002;28;20025;-64
2020/12/22 11:30:56;;;;;;;11.88;5.40;;;14.20;99.90;;;;;;5013945;28;20018;-63
2020/12/22 11:33:21;;;;;;;8.10;2.38;;;14.40;99.90;;;;;;5013190;28;20038;-63
2020/12/22 11:35:47;;;;;;;10.55;4.38;;;14.50;99.90;;;;;;5016616;28;20030;-64
2020/12/22 11:38:12;;;;;;;4.97;2.70;;;14.60;99.90;;;;;;5013003;28;20033;-63
2020/12/22 11:40:38;;;;;;;8.13;3.60;;;14.70;99.90;;;;;;5028753;28;20033;-64
2020/12/22 11:43:03;;;;;;;11.13;3.58;;;14.70;99.90;;;;;;5034715;28;20036;-63
2020/12/22 11:45:29;;;;;;;7.38;3.33;;;14.70;99.90;;;;;;5020288;28;20038;-63
2020/12/22 11:47:54;;;;;;;12.52;6.38;;;14.70;99.90;;;;;;5021581;28;20032;-63
2020/12/22 11:50:20;;;;;;;13.82;6.38;;;14.70;99.90;;;;;;5032908;28;20029;-64
2020/12/22 11:52:46;;;;;;;19.30;7.38;;;14.70;99.90;;;;;;5018822;28;20026;-62
2020/12/22 11:55:11;;;;;;;17.67;8.20;;;14.70;99.90;;;;;;5026526;28;20033;-64
2020/12/22 11:57:37;;;;;;;10.20;3.22;;;14.70;99.90;;;;;;5032691;28;20049;-63
2020/12/22 12:00:05;;;;;;;14.70;6.22;;;14.80;99.90;;;;;;5029004;28;20524;-63
2020/12/22 12:02:31;;;;;;;6.65;2.60;;;15.00;99.90;;;;;;5016898;28;20117;-63
2020/12/22 12:04:56;;;;;;;7.68;3.85;;;15.10;99.90;;;;;;5014915;28;20025;-63
2020/12/22 12:07:22;;;;;;;4.07;1.67;;;15.10;99.90;;;;;;5010412;28;20668;-63
2020/12/22 12:09:47;;;;;;;6.10;1.35;;;14.90;99.90;;;;;;5012674;28;20965;-62
2020/12/22 12:12:13;;;;;;;7.70;3.35;;;14.80;99.90;;;;;;5014533;28;21367;-63
2020/12/22 12:14:38;;;;;;;4.57;1.40;;;14.70;99.90;;;;;;5013204;28;20454;-63
2020/12/22 12:17:04;;;;;;;4.50;1.48;;;14.60;99.90;;;;;;4999225;28;20017;-63
2020/12/22 12:19:32;;;;;;;3.63;1.30;;;14.60;99.90;;;;;;5009719;28;20113;-63
2020/12/22 12:22:01;;;;;;;3.75;1.75;;;14.60;99.90;;;;;;5013944;28;20497;-62
2020/12/22 12:24:26;;;;;;;4.28;2.60;;;14.60;99.90;;;;;;5017279;28;20037;-62
2020/12/22 12:26:52;;;;;;;3.65;1.55;;;14.70;99.90;;;;;;5016320;28;20033;-63
2020/12/22 12:29:18;;;;;;;5.28;1.38;;;14.70;99.90;;;;;;5016392;28;20896;-63
2020/12/22 12:31:48;;;;;;;2.50;1.38;;;14.50;99.90;;;;;;5013844;28;20026;-63
2020/12/22 12:34:15;;;;;;;3.20;1.92;;;14.40;99.90;;;;;;5016714;28;20408;-62
2020/12/22 12:36:41;;;;;;;3.60;1.45;;;14.30;99.90;;;;;;5013275;28;20033;-63
2020/12/22 12:39:07;;;;;;;5.22;1.13;;;14.20;99.90;;;;;;5014110;28;20034;-62
2020/12/22 12:41:33;;;;;;;5.15;1.45;;;14.10;99.90;;;;;;5015820;28;20041;-62
2020/12/22 12:43:59;;;;;;;5.32;2.47;;;14.10;99.90;;;;;;5012154;28;20030;-62
2020/12/22 12:46:25;;;;;;;5.97;2.47;;;14.00;99.90;;;;;;5014536;28;20164;-63
2020/12/22 12:48:52;;;;;;;3.53;1.55;;;14.00;99.90;;;;;;5014338;28;20057;-62